X  Sluiten METAR luchtvaart weer gegevens      EHAM Amsterdam Airport Schiphol
Temperatuur
16°C Temperatuur
9°C Dauwpunt
63% Vochtigheid



Wind
19 KM/U
12 MPH
5 M/S
10 KTS



20°
NNO
Huidig weer

Wat bewolking Wat bewolking
Luchtdruk 1021.92 (hPa) - 30.18 (inHg)
Zicht 6.2 (mijl) - 10 (km)
Vliegveld
Vliegveld code EHAM

Locatie : Amsterdam Airport Schiphol
Afstand: 2 (km)

Metar:
EHAM 230825Z 02010KT 330V050 9999 FEW028 BKN042 16/09 Q1022 NOSIG

Tijd: 23-06-2021 10:25 CEST